Crawfordsville, Arkansas
Current Conditions -  °F | °C
As of 6:53 AM on Thursday 27 Nov 2014 (Local Time) from KAWM Reporting Station
Overcast Overcast  
Wind Chill: 30°   Ceiling: 3000
Heat Index: 37°   Visibility: 10mi
Dew Point: 30°   Wind: 9mph
Humidity: 76%   Direction: 340°NNW
Pressure: 30.43"   Gusts: NA
Location:  35.23°N, 90.33°W
Report Text: KAWM 271253Z AUTO 34008KT 10SM OVC030 03/M01 A3043 RMK AO2 SLP308 T00281011
Loading
Personal Weather Stations






























Interactive Weather Map New forecast layout! Learn more

10-Day Weather Forecast

Advertisements
Track Severe Weather on mobile